Time;durP1;ratioP1;P1;durP2;ratioP2;P2;SDS_P1;SDS_P2;PMS_P1;PMS_P2;Temp;Humidity;BMP_temperature;BMP_pressure;BME280_temperature;BME280_humidity;BME280_pressure;Samples;Min_cycle;Max_cycle;Signal;HPM_P1;HPM_P2
2022/08/03 00:01:26;;;;;;;21.38;3.40;;;20.30;99.90;;;;;;4930286;29;20122;-54
2022/08/03 00:03:53;;;;;;;20.33;4.25;;;20.20;99.90;;;;;;4930516;29;20705;-52
2022/08/03 00:06:20;;;;;;;19.52;3.70;;;20.30;99.90;;;;;;4930976;29;20138;-52
2022/08/03 00:08:46;;;;;;;17.55;3.63;;;20.30;99.90;;;;;;4929717;29;20579;-51
2022/08/03 00:11:13;;;;;;;14.30;3.33;;;20.30;99.90;;;;;;4922709;29;20779;-51
2022/08/03 00:13:40;;;;;;;17.30;2.88;;;20.20;99.90;;;;;;4927478;29;20575;-53
2022/08/03 00:16:07;;;;;;;16.45;3.83;;;20.30;99.90;;;;;;4924850;29;20497;-54
2022/08/03 00:18:34;;;;;;;14.50;4.00;;;20.20;99.90;;;;;;4929239;29;20105;-54
2022/08/03 00:21:01;;;;;;;12.50;3.53;;;20.10;99.90;;;;;;4912267;29;20138;-53
2022/08/03 00:23:28;;;;;;;21.42;4.47;;;20.10;99.90;;;;;;4929629;29;20079;-51
2022/08/03 00:26:15;;;;;;;12.48;2.92;;;20.10;99.90;;;;;;4919543;29;20058;-53
2022/08/03 00:28:41;;;;;;;13.73;3.63;;;20.10;99.90;;;;;;4928090;29;20108;-54
2022/08/03 00:31:08;;;;;;;16.33;3.70;;;20.00;99.90;;;;;;4929360;28;20134;-54
2022/08/03 00:33:39;;;;;;;13.23;3.67;;;20.00;99.90;;;;;;4928651;28;20460;-55
2022/08/03 00:36:26;;;;;;;15.27;3.92;;;20.00;99.90;;;;;;4928721;29;20055;-53
2022/08/03 00:38:53;;;;;;;21.90;4.68;;;19.90;99.90;;;;;;4929210;29;20122;-54
2022/08/03 00:41:19;;;;;;;15.45;3.45;;;19.90;99.90;;;;;;4928877;28;20571;-54
2022/08/03 00:43:46;;;;;;;19.60;5.97;;;19.80;99.90;;;;;;4928485;28;20139;-54
2022/08/03 00:46:13;;;;;;;19.88;3.28;;;19.70;99.90;;;;;;4927648;29;20062;-49
2022/08/03 00:48:49;;;;;;;16.45;4.00;;;19.60;99.90;;;;;;4928697;29;20065;-53
2022/08/03 00:51:17;;;;;;;10.15;3.40;;;19.60;99.90;;;;;;4928792;29;20052;-55
2022/08/03 00:53:44;;;;;;;13.43;3.70;;;19.60;99.90;;;;;;4927184;29;20051;-54
2022/08/03 00:56:15;;;;;;;18.00;3.00;;;19.60;99.90;;;;;;4930212;29;20059;-54
2022/08/03 00:58:45;;;;;;;12.07;2.88;;;19.60;99.90;;;;;;4930034;29;20127;-53
2022/08/03 01:01:11;;;;;;;23.83;4.97;;;19.60;99.90;;;;;;4930220;29;20139;-52
2022/08/03 01:03:39;;;;;;;19.15;4.07;;;19.60;99.90;;;;;;4930277;29;20130;-54
2022/08/03 01:06:17;;;;;;;21.73;4.47;;;19.60;99.90;;;;;;4930523;29;20134;-53
2022/08/03 01:08:58;;;;;;;14.43;4.63;;;19.60;99.90;;;;;;4914060;29;20044;-55
2022/08/03 01:11:32;;;;;;;13.23;3.80;;;19.50;99.90;;;;;;4929545;29;20082;-51
2022/08/03 01:14:08;;;;;;;14.32;4.45;;;19.50;99.90;;;;;;4929172;29;20135;-54
2022/08/03 01:17:23;;;;;;;18.85;4.05;;;19.50;99.90;;;;;;4929322;29;20071;-54
2022/08/03 01:19:58;;;;;;;13.75;4.88;;;19.50;99.90;;;;;;4927655;29;20118;-51
2022/08/03 01:22:49;;;;;;;13.57;4.43;;;19.60;99.90;;;;;;4939102;29;20043;-52
2022/08/03 01:25:39;;;;;;;15.82;4.38;;;19.50;99.90;;;;;;4943253;29;20083;-49
2022/08/03 01:28:32;;;;;;;16.80;4.43;;;19.60;99.90;;;;;;4928669;29;20522;-53
2022/08/03 01:31:02;;;;;;;16.77;5.30;;;19.40;99.90;;;;;;4928642;29;20490;-53
2022/08/03 01:33:45;;;;;;;14.93;4.75;;;19.40;99.90;;;;;;4913980;29;20047;-53
2022/08/03 01:36:13;;;;;;;13.30;4.77;;;19.40;99.90;;;;;;4914135;29;20118;-54
2022/08/03 01:38:52;;;;;;;28.80;5.82;;;19.40;99.90;;;;;;4930122;29;20503;-53
2022/08/03 01:41:25;;;;;;;20.23;6.72;;;19.30;99.90;;;;;;4928885;29;20075;-53
2022/08/03 01:43:52;;;;;;;16.47;7.57;;;19.30;99.90;;;;;;4929007;29;20158;-50
2022/08/03 01:46:39;;;;;;;20.38;6.65;;;19.20;99.90;;;;;;4916059;29;20301;-51
2022/08/03 01:49:13;;;;;;;16.10;5.95;;;19.30;99.90;;;;;;4929311;29;20051;-52
2022/08/03 01:51:41;;;;;;;13.13;4.97;;;19.20;99.90;;;;;;4928384;29;20044;-49
2022/08/03 01:54:28;;;;;;;25.73;8.35;;;19.30;99.90;;;;;;4930175;29;20051;-51
2022/08/03 01:56:55;;;;;;;25.92;7.60;;;19.30;99.90;;;;;;4910345;29;20079;-53
2022/08/03 01:59:22;;;;;;;16.83;7.53;;;19.20;99.90;;;;;;4572793;28;10000464;-51
2022/08/03 02:01:49;;;;;;;15.98;7.15;;;19.20;99.90;;;;;;4932184;29;20051;-54
2022/08/03 02:04:36;;;;;;;21.00;9.27;;;19.20;99.90;;;;;;4923573;29;20047;-54
2022/08/03 02:07:02;;;;;;;27.25;7.97;;;19.10;99.90;;;;;;4916475;29;20126;-55
2022/08/03 02:09:29;;;;;;;17.83;8.45;;;19.10;99.90;;;;;;4932473;29;20132;-55
2022/08/03 02:11:56;;;;;;;16.30;8.55;;;19.10;99.90;;;;;;4933203;29;20058;-52
2022/08/03 02:14:23;;;;;;;19.15;8.77;;;19.00;99.90;;;;;;4932188;29;20180;-54
2022/08/03 02:16:50;;;;;;;24.90;8.90;;;19.00;99.90;;;;;;4933041;29;20052;-54
2022/08/03 02:19:17;;;;;;;19.65;8.80;;;19.00;99.90;;;;;;4932152;29;20079;-54
2022/08/03 02:21:44;;;;;;;18.83;7.93;;;19.00;99.90;;;;;;4914738;29;20550;-54
2022/08/03 02:24:27;;;;;;;18.92;8.10;;;19.00;99.90;;;;;;4930834;29;20419;-54
2022/08/03 02:26:55;;;;;;;22.02;9.57;;;19.00;99.90;;;;;;4931619;29;20464;-55
2022/08/03 02:29:23;;;;;;;19.75;9.02;;;19.00;99.90;;;;;;4931337;29;20126;-53
2022/08/03 02:32:11;;;;;;;18.02;8.35;;;19.00;99.90;;;;;;4931860;29;20047;-52
2022/08/03 02:34:38;;;;;;;17.35;8.50;;;19.10;99.90;;;;;;4931567;29;20515;-54
2022/08/03 02:37:05;;;;;;;19.30;8.15;;;19.10;99.90;;;;;;4931487;29;20052;-53
2022/08/03 02:39:32;;;;;;;19.35;9.45;;;19.20;99.90;;;;;;4931620;29;20139;-53
2022/08/03 02:42:02;;;;;;;18.83;7.53;;;19.20;99.90;;;;;;4914106;29;20088;-55
2022/08/03 02:44:31;;;;;;;19.20;7.75;;;19.20;99.90;;;;;;4931675;29;20480;-54
2022/08/03 02:47:01;;;;;;;18.52;7.13;;;19.20;99.90;;;;;;4915991;29;20179;-53
2022/08/03 02:49:29;;;;;;;13.55;5.60;;;19.30;99.90;;;;;;4932678;29;20579;-55
2022/08/03 02:52:15;;;;;;;15.38;5.82;;;19.30;99.90;;;;;;4931459;29;20044;-53
2022/08/03 02:54:43;;;;;;;12.90;4.03;;;19.30;99.90;;;;;;4931263;29;20048;-54
2022/08/03 02:57:10;;;;;;;12.88;5.10;;;19.30;99.90;;;;;;4931640;29;20071;-54
2022/08/03 02:59:37;;;;;;;13.63;4.25;;;19.30;99.90;;;;;;4931275;29;20076;-52
2022/08/03 03:02:03;;;;;;;18.83;5.53;;;19.30;99.90;;;;;;4931360;29;20079;-54
2022/08/03 03:04:30;;;;;;;12.50;4.43;;;19.30;99.90;;;;;;4931219;29;20133;-53
2022/08/03 03:06:59;;;;;;;10.00;4.00;;;19.40;99.90;;;;;;4931137;29;20056;-53
2022/08/03 03:09:27;;;;;;;18.80;4.75;;;19.40;99.90;;;;;;4930743;29;20499;-53
2022/08/03 03:12:07;;;;;;;18.55;3.85;;;19.40;99.90;;;;;;4932246;29;20052;-53
2022/08/03 03:14:35;;;;;;;14.27;4.10;;;19.50;99.90;;;;;;4915336;29;20047;-55
2022/08/03 03:17:02;;;;;;;10.23;5.13;;;19.50;99.90;;;;;;4915578;29;20087;-50
2022/08/03 03:19:30;;;;;;;10.55;3.50;;;19.50;99.90;;;;;;4930926;29;20048;-53
2022/08/03 03:21:57;;;;;;;21.45;4.68;;;19.50;99.90;;;;;;4930793;29;20055;-54
2022/08/03 03:24:24;;;;;;;19.02;4.40;;;19.50;99.90;;;;;;4930648;29;20134;-52
2022/08/03 03:26:51;;;;;;;10.95;3.15;;;19.50;99.90;;;;;;4930671;29;20078;-60
2022/08/03 03:29:18;;;;;;;17.23;5.30;;;19.50;99.90;;;;;;4931966;29;20075;-51
2022/08/03 03:31:44;;;;;;;12.30;3.72;;;19.50;99.90;;;;;;4930676;29;20476;-53
2022/08/03 03:34:11;;;;;;;11.02;4.30;;;19.50;99.90;;;;;;4932072;29;20054;-49
2022/08/03 03:36:38;;;;;;;16.08;5.55;;;19.60;99.90;;;;;;4914721;29;20083;-54
2022/08/03 03:39:04;;;;;;;13.23;5.10;;;19.50;99.90;;;;;;4930525;29;20664;-54
2022/08/03 03:41:42;;;;;;;15.55;6.35;;;19.50;99.90;;;;;;4931570;29;20050;-52
2022/08/03 03:44:08;;;;;;;14.75;7.03;;;19.50;99.90;;;;;;4930465;29;20078;-51
2022/08/03 03:46:35;;;;;;;17.15;5.88;;;19.50;99.90;;;;;;4931670;29;20521;-51
2022/08/03 03:49:04;;;;;;;15.05;5.32;;;19.50;99.90;;;;;;4914745;29;20503;-48
2022/08/03 03:51:31;;;;;;;17.38;6.57;;;19.60;99.90;;;;;;4915068;29;20051;-53
2022/08/03 03:53:58;;;;;;;24.38;9.75;;;19.60;99.90;;;;;;4931599;29;20135;-54
2022/08/03 03:56:25;;;;;;;20.90;5.90;;;19.60;99.90;;;;;;4930226;29;20154;-54
2022/08/03 03:58:52;;;;;;;12.27;5.38;;;19.60;99.90;;;;;;4931613;29;20079;-50
2022/08/03 04:01:19;;;;;;;15.57;5.68;;;19.60;99.90;;;;;;4931362;29;20191;-51
2022/08/03 04:03:46;;;;;;;21.70;6.88;;;19.60;99.90;;;;;;4929178;28;20059;-53
2022/08/03 04:11:50;;;;;;;10.32;5.70;;;19.60;99.90;;;;;;4926985;29;20135;-51
2022/08/03 04:14:36;;;;;;;17.60;6.30;;;19.60;99.90;;;;;;4930279;29;20101;-55
2022/08/03 04:17:04;;;;;;;17.42;6.53;;;19.60;99.90;;;;;;4916758;29;20043;-51
2022/08/03 04:19:36;;;;;;;15.50;4.88;;;19.70;99.90;;;;;;4930005;29;20075;-53
2022/08/03 04:22:06;;;;;;;13.70;5.45;;;19.70;99.90;;;;;;4930704;29;20048;-51
2022/08/03 04:24:56;;;;;;;16.10;5.07;;;19.70;99.90;;;;;;4931309;29;20086;-54
2022/08/03 04:27:25;;;;;;;13.32;5.07;;;19.70;99.90;;;;;;4929923;29;20205;-53
2022/08/03 04:29:53;;;;;;;19.75;5.80;;;19.70;99.90;;;;;;4930885;29;20565;-52
2022/08/03 04:32:19;;;;;;;18.42;5.45;;;19.60;99.90;;;;;;4913982;29;20075;-54
2022/08/03 04:34:46;;;;;;;16.50;5.15;;;19.60;99.90;;;;;;4914135;29;20543;-53
2022/08/03 04:37:37;;;;;;;17.38;6.57;;;19.60;99.90;;;;;;4930675;29;20143;-55
2022/08/03 04:40:17;;;;;;;10.85;5.75;;;19.60;99.90;;;;;;4931246;29;20051;-52
2022/08/03 04:42:48;;;;;;;16.48;5.47;;;19.70;99.90;;;;;;4926688;29;20075;-53
2022/08/03 04:45:15;;;;;;;12.77;5.72;;;19.70;99.90;;;;;;4929846;29;20079;-50
2022/08/03 04:47:42;;;;;;;16.55;6.13;;;19.60;99.90;;;;;;4930395;29;20138;-50
2022/08/03 04:50:09;;;;;;;14.95;5.18;;;19.60;99.90;;;;;;4929981;29;20507;-52
2022/08/03 04:52:38;;;;;;;19.08;6.65;;;19.60;99.90;;;;;;4914032;29;20055;-55
2022/08/03 04:55:05;;;;;;;22.40;8.63;;;19.70;99.90;;;;;;4929703;29;20047;-53
2022/08/03 04:57:32;;;;;;;24.40;7.32;;;19.60;99.90;;;;;;4930434;29;20076;-52
2022/08/03 04:59:59;;;;;;;18.00;6.30;;;19.60;99.90;;;;;;4930565;29;20067;-54
2022/08/03 05:02:30;;;;;;;15.85;7.47;;;19.60;99.90;;;;;;4930452;29;20052;-50
2022/08/03 05:04:57;;;;;;;14.63;7.00;;;19.70;99.90;;;;;;4930651;29;20056;-51
2022/08/03 05:07:23;;;;;;;19.52;7.10;;;19.70;99.90;;;;;;4929505;29;20101;-53
2022/08/03 05:09:51;;;;;;;18.08;7.25;;;19.70;99.90;;;;;;4930460;29;20048;-53
2022/08/03 05:12:28;;;;;;;13.70;8.00;;;19.70;99.90;;;;;;4929516;29;20107;-53
2022/08/03 05:14:59;;;;;;;12.27;7.82;;;19.70;99.90;;;;;;4930509;29;20054;-51
2022/08/03 05:17:25;;;;;;;19.35;8.88;;;19.70;99.90;;;;;;4930606;29;20079;-55
2022/08/03 05:19:52;;;;;;;19.65;8.02;;;19.70;99.90;;;;;;4930402;28;20571;-55
2022/08/03 05:22:20;;;;;;;12.82;7.30;;;19.70;99.90;;;;;;4930689;29;20043;-53
2022/08/03 05:24:47;;;;;;;14.82;7.32;;;19.70;99.90;;;;;;4930367;29;20494;-53
2022/08/03 05:27:18;;;;;;;17.75;7.85;;;19.70;99.90;;;;;;4930675;29;20554;-55
2022/08/03 05:29:45;;;;;;;13.27;6.68;;;19.70;99.90;;;;;;4923655;29;20568;-52
2022/08/03 05:32:12;;;;;;;12.88;7.35;;;19.70;99.90;;;;;;4930521;29;20139;-54
2022/08/03 05:34:39;;;;;;;17.05;7.72;;;19.70;99.90;;;;;;4932656;29;20056;-54
2022/08/03 05:37:09;;;;;;;15.40;6.90;;;19.70;99.90;;;;;;4932859;29;20107;-51
2022/08/03 05:39:35;;;;;;;19.77;7.65;;;19.70;99.90;;;;;;4930582;29;20092;-54
2022/08/03 05:42:02;;;;;;;11.18;6.40;;;19.60;99.90;;;;;;4934144;29;20090;-54
2022/08/03 05:44:30;;;;;;;13.85;6.05;;;19.60;99.90;;;;;;4933669;29;20062;-51
2022/08/03 05:46:58;;;;;;;11.27;5.82;;;19.70;99.90;;;;;;4932836;29;20052;-52
2022/08/03 05:49:24;;;;;;;15.93;6.85;;;19.70;99.90;;;;;;4933697;29;20083;-53
2022/08/03 05:51:51;;;;;;;14.43;6.25;;;19.80;99.90;;;;;;4933797;29;20047;-51
2022/08/03 05:54:38;;;;;;;18.33;6.85;;;19.90;99.90;;;;;;4933463;29;20043;-54
2022/08/03 05:57:23;;;;;;;19.25;6.80;;;19.90;99.90;;;;;;4934107;28;20083;-51
2022/08/03 05:59:50;;;;;;;12.52;6.90;;;20.00;99.90;;;;;;4933555;29;20562;-53
2022/08/03 06:02:25;;;;;;;17.02;7.25;;;20.00;99.90;;;;;;4924025;29;20415;-54
2022/08/03 06:04:52;;;;;;;16.77;6.65;;;20.00;99.90;;;;;;4933337;29;20126;-52
2022/08/03 06:07:19;;;;;;;8.93;5.38;;;20.00;99.90;;;;;;4933708;29;20055;-53
2022/08/03 06:09:45;;;;;;;13.55;7.18;;;20.00;99.90;;;;;;4932872;29;20134;-56
2022/08/03 06:12:34;;;;;;;11.35;5.78;;;20.00;99.90;;;;;;4933703;29;20055;-53
2022/08/03 06:15:03;;;;;;;12.55;5.40;;;20.10;99.90;;;;;;4932945;29;20482;-53
2022/08/03 06:17:29;;;;;;;13.63;5.53;;;20.10;99.90;;;;;;4932494;29;20566;-55
2022/08/03 06:20:04;;;;;;;;;;;20.20;99.90;;;;;;4932873;29;20134;-52
2022/08/03 06:22:31;;;;;;;10.20;4.93;;;20.30;99.90;;;;;;4932882;29;20456;-54
2022/08/03 06:24:57;;;;;;;13.80;4.95;;;20.30;99.90;;;;;;4933051;29;20090;-53
2022/08/03 06:27:29;;;;;;;7.07;4.15;;;20.40;99.90;;;;;;4933009;29;20165;-52
2022/08/03 06:30:03;;;;;;;9.38;4.20;;;20.40;99.90;;;;;;4933406;29;20043;-52
2022/08/03 06:32:30;;;;;;;6.68;3.90;;;20.40;99.90;;;;;;4933168;29;20496;-53
2022/08/03 06:34:57;;;;;;;15.65;4.72;;;20.40;99.90;;;;;;4933120;29;21227;-60
2022/08/03 06:37:25;;;;;;;8.63;3.83;;;20.40;99.90;;;;;;4932798;29;20052;-55
2022/08/03 06:39:53;;;;;;;10.80;4.32;;;20.50;99.90;;;;;;4932840;29;20083;-54
2022/08/03 06:42:19;;;;;;;9.45;3.10;;;20.50;99.90;;;;;;4932911;29;20111;-54
2022/08/03 06:44:48;;;;;;;6.43;3.50;;;20.50;99.90;;;;;;4932489;29;20096;-55
2022/08/03 06:47:15;;;;;;;8.75;3.13;;;20.50;99.90;;;;;;4932975;28;20071;-52
2022/08/03 06:49:41;;;;;;;5.95;3.47;;;20.60;99.90;;;;;;4932797;29;20083;-54
2022/08/03 06:52:08;;;;;;;12.52;3.33;;;20.60;99.90;;;;;;4932884;29;20411;-51
2022/08/03 06:54:35;;;;;;;7.45;2.55;;;20.70;99.90;;;;;;4932859;29;20083;-52
2022/08/03 06:57:02;;;;;;;6.93;2.55;;;20.70;99.90;;;;;;4931355;29;20090;-53
2022/08/03 06:59:29;;;;;;;6.10;2.22;;;20.70;99.90;;;;;;4932814;29;20143;-52
2022/08/03 07:02:18;;;;;;;6.00;2.70;;;20.70;99.90;;;;;;4932038;29;20043;-55
2022/08/03 07:04:47;;;;;;;6.00;2.42;;;20.70;99.90;;;;;;4932635;29;20522;-52
2022/08/03 07:07:14;;;;;;;10.52;3.20;;;20.70;99.90;;;;;;4932448;29;20134;-53
2022/08/03 07:09:40;;;;;;;7.70;2.28;;;20.70;99.90;;;;;;4932520;29;20052;-53
2022/08/03 07:12:23;;;;;;;5.95;2.20;;;20.60;99.90;;;;;;4932289;29;20048;-54
2022/08/03 07:14:49;;;;;;;4.38;2.15;;;20.70;99.90;;;;;;4932525;29;20151;-55
2022/08/03 07:17:17;;;;;;;6.70;2.33;;;20.70;99.90;;;;;;4931868;29;20127;-54
2022/08/03 07:19:43;;;;;;;7.50;2.60;;;20.80;99.90;;;;;;4931964;29;20522;-54
2022/08/03 07:22:10;;;;;;;8.73;2.38;;;20.90;99.90;;;;;;4931904;29;20139;-53
2022/08/03 07:24:37;;;;;;;9.13;2.43;;;20.90;99.90;;;;;;4589874;28;10000331;-55
2022/08/03 07:27:04;;;;;;;7.55;2.63;;;21.00;99.90;;;;;;4929263;29;20127;-55
2022/08/03 07:29:31;;;;;;;6.88;3.40;;;21.10;99.90;;;;;;4927864;29;20059;-54
2022/08/03 07:32:00;;;;;;;7.65;2.33;;;21.10;99.90;;;;;;4928913;29;20050;-52
2022/08/03 07:34:27;;;;;;;4.82;2.22;;;21.10;99.90;;;;;;4928362;29;20090;-53
2022/08/03 07:36:54;;;;;;;5.35;2.70;;;21.20;99.90;;;;;;4927960;29;20079;-54
2022/08/03 07:39:21;;;;;;;4.55;2.20;;;21.20;99.90;;;;;;4928344;29;20194;-59
2022/08/03 07:41:50;;;;;;;5.47;2.58;;;21.20;99.90;;;;;;4926846;29;20527;-57
2022/08/03 07:44:20;;;;;;;6.57;2.85;;;21.10;99.90;;;;;;4928794;29;20138;-54
2022/08/03 07:46:47;;;;;;;5.72;3.00;;;21.20;99.90;;;;;;4928726;29;20135;-54
2022/08/03 07:49:13;;;;;;;6.88;2.65;;;21.20;99.90;;;;;;4928402;29;20722;-54
2022/08/03 07:51:40;;;;;;;3.30;2.55;;;21.30;99.90;;;;;;4926168;29;20076;-53
2022/08/03 07:54:08;;;;;;;6.03;2.50;;;21.40;99.90;;;;;;4918657;29;20143;-56
2022/08/03 07:56:36;;;;;;;3.78;2.13;;;21.30;99.90;;;;;;4927721;29;20056;-55
2022/08/03 07:59:03;;;;;;;5.10;2.42;;;21.20;99.90;;;;;;4927275;29;20059;-55
2022/08/03 08:01:31;;;;;;;6.57;2.35;;;21.20;99.90;;;;;;4928114;29;20598;-53
2022/08/03 08:03:58;;;;;;;3.95;1.80;;;21.20;99.90;;;;;;4927869;29;20044;-53
2022/08/03 08:06:25;;;;;;;3.67;1.92;;;21.30;99.90;;;;;;4928817;29;20094;-54
2022/08/03 08:08:52;;;;;;;3.85;2.22;;;21.40;99.90;;;;;;4927143;29;20051;-53
2022/08/03 08:11:21;;;;;;;6.63;2.38;;;21.30;99.90;;;;;;4927657;29;20106;-53
2022/08/03 08:13:47;;;;;;;3.38;1.80;;;21.40;99.90;;;;;;4928695;29;20066;-52
2022/08/03 08:16:14;;;;;;;4.63;1.98;;;21.50;99.90;;;;;;4928699;29;20500;-49
2022/08/03 08:18:41;;;;;;;5.78;1.63;;;21.60;99.90;;;;;;4928175;29;20086;-48
2022/08/03 08:21:09;;;;;;;6.03;1.77;;;21.80;99.90;;;;;;4927709;29;20087;-54
2022/08/03 08:23:35;;;;;;;2.63;1.83;;;21.80;99.90;;;;;;4927782;29;20177;-53
2022/08/03 08:26:11;;;;;;;4.22;1.42;;;21.80;99.90;;;;;;4928014;29;20502;-55
2022/08/03 08:28:38;;;;;;;2.53;1.52;;;21.90;99.90;;;;;;4928134;29;20115;-50
2022/08/03 08:31:05;;;;;;;3.58;1.40;;;21.90;99.90;;;;;;4928042;29;20170;-50
2022/08/03 08:33:33;;;;;;;2.67;1.00;;;22.00;99.90;;;;;;4928258;29;20134;-51
2022/08/03 08:36:20;;;;;;;2.08;1.52;;;22.10;99.90;;;;;;4928002;29;20051;-54
2022/08/03 08:38:47;;;;;;;1.88;1.02;;;22.20;99.90;;;;;;4927750;29;20146;-53
2022/08/03 08:41:14;;;;;;;1.88;1.20;;;22.00;99.90;;;;;;4927984;29;20142;-53
2022/08/03 08:43:40;;;;;;;7.28;1.20;;;22.10;99.90;;;;;;4927339;28;20056;-57
2022/08/03 08:46:10;;;;;;;3.22;1.38;;;22.20;99.90;;;;;;4927316;29;20366;-53
2022/08/03 08:48:40;;;;;;;1.38;1.00;;;22.30;99.90;;;;;;4927333;29;20163;-52
2022/08/03 08:51:07;;;;;;;4.18;1.10;;;22.30;99.90;;;;;;4927858;29;20131;-51
2022/08/03 08:53:36;;;;;;;5.38;0.90;;;22.30;99.90;;;;;;4926941;29;20063;-54
2022/08/03 08:56:03;;;;;;;3.47;1.42;;;22.40;99.90;;;;;;4927373;29;20079;-53
2022/08/03 08:58:36;;;;;;;1.00;0.73;;;22.50;99.90;;;;;;4928184;29;20634;-54
2022/08/03 09:01:04;;;;;;;4.03;1.20;;;22.50;99.90;;;;;;4927364;29;20284;-55
2022/08/03 09:03:33;;;;;;;4.07;1.25;;;22.60;99.90;;;;;;4927980;29;20083;-56
2022/08/03 09:06:00;;;;;;;1.75;1.00;;;22.70;99.90;;;;;;4927455;29;20091;-55
2022/08/03 09:08:28;;;;;;;3.15;1.30;;;22.60;99.90;;;;;;4931476;29;20598;-55
2022/08/03 09:10:55;;;;;;;7.05;0.85;;;22.50;99.90;;;;;;4933669;29;20052;-52
2022/08/03 09:13:21;;;;;;;3.78;0.80;;;22.60;99.90;;;;;;4934541;29;20135;-54
2022/08/03 09:15:51;;;;;;;7.22;0.90;;;22.70;99.90;;;;;;4932720;29;20119;-55
2022/08/03 09:18:30;;;;;;;6.18;1.35;;;22.80;99.90;;;;;;4929579;29;20055;-54
2022/08/03 09:21:21;;;;;;;5.07;1.00;;;22.80;99.90;;;;;;4933425;29;20139;-55
2022/08/03 09:24:03;;;;;;;8.65;1.70;;;22.90;99.90;;;;;;4933655;29;20665;-55
2022/08/03 09:26:36;;;;;;;5.70;1.17;;;23.00;99.90;;;;;;4932490;29;20040;-55
2022/08/03 09:29:09;;;;;;;15.73;2.28;;;23.10;99.90;;;;;;4933938;28;20147;-54
2022/08/03 09:31:41;;;;;;;22.63;2.55;;;23.20;99.90;;;;;;4933693;29;20051;-55
2022/08/03 09:34:15;;;;;;;2.50;0.90;;;23.40;99.90;;;;;;4934151;29;20103;-54
2022/08/03 09:36:49;;;;;;;1.65;1.08;;;23.20;99.90;;;;;;4933350;29;20059;-56
2022/08/03 09:39:18;;;;;;;12.15;5.63;;;23.20;99.90;;;;;;4931926;29;20052;-54
2022/08/03 09:42:16;;;;;;;10.13;2.65;;;23.00;99.90;;;;;;4932193;29;20376;-52
2022/08/03 09:44:47;;;;;;;8.70;1.85;;;23.00;99.90;;;;;;4931811;28;20527;-56
2022/08/03 09:47:15;;;;;;;6.95;1.77;;;23.10;99.90;;;;;;4931659;29;20043;-53
2022/08/03 09:50:01;;;;;;;26.65;2.97;;;23.20;99.90;;;;;;4931928;28;20056;-56
2022/08/03 09:52:31;;;;;;;16.98;2.45;;;23.20;99.90;;;;;;4930512;29;20050;-53
2022/08/03 09:55:14;;;;;;;17.90;2.15;;;23.20;99.90;;;;;;4923544;28;20048;-55
2022/08/03 09:58:09;;;;;;;7.03;1.52;;;23.20;99.90;;;;;;4933233;29;20047;-55
2022/08/03 10:00:52;;;;;;;11.02;1.95;;;23.30;99.90;;;;;;4933378;29;20526;-57
2022/08/03 10:03:20;;;;;;;20.15;2.20;;;23.30;99.90;;;;;;4932707;29;20051;-56
2022/08/03 10:05:46;;;;;;;16.30;2.45;;;23.50;99.90;;;;;;4933110;29;20168;-54
2022/08/03 10:08:14;;;;;;;5.35;1.35;;;23.60;99.90;;;;;;4931889;29;20044;-55
2022/08/03 10:10:42;;;;;;;11.07;1.35;;;23.90;99.90;;;;;;4926895;29;20086;-54
2022/08/03 10:13:17;;;;;;;6.53;1.10;;;24.10;99.90;;;;;;4933025;29;20130;-56
2022/08/03 10:15:44;;;;;;;6.22;1.10;;;24.20;99.90;;;;;;4932986;29;20056;-54
2022/08/03 10:18:31;;;;;;;4.05;1.30;;;24.10;99.90;;;;;;4933036;28;20047;-54
2022/08/03 10:21:02;;;;;;;4.32;1.30;;;24.20;99.90;;;;;;4932435;29;20097;-57
2022/08/03 10:23:31;;;;;;;6.38;1.48;;;24.40;99.90;;;;;;4931410;29;20087;-53
2022/08/03 10:26:01;;;;;;;5.75;1.40;;;24.50;99.90;;;;;;4931556;29;20452;-52
2022/08/03 10:28:36;;;;;;;6.45;1.77;;;24.80;99.90;;;;;;4931358;29;20059;-54
2022/08/03 10:31:10;;;;;;;9.18;1.85;;;25.10;99.90;;;;;;4933042;29;20522;-53
2022/08/03 10:33:40;;;;;;;2.75;1.17;;;25.20;99.90;;;;;;4931873;29;20142;-52
2022/08/03 10:36:16;;;;;;;5.72;0.82;;;25.30;99.90;;;;;;4932061;29;20050;-53
2022/08/03 10:38:46;;;;;;;4.85;0.85;;;25.50;99.90;;;;;;4931289;29;20087;-55
2022/08/03 10:41:14;;;;;;;2.42;0.90;;;25.40;99.90;;;;;;4916539;29;20044;-54
2022/08/03 10:43:43;;;;;;;4.78;1.10;;;25.40;99.90;;;;;;4931285;29;20094;-56
2022/08/03 10:46:10;;;;;;;2.70;1.05;;;25.60;99.90;;;;;;4931727;29;20153;-56
2022/08/03 10:48:37;;;;;;;4.82;0.90;;;25.50;99.90;;;;;;4932819;29;20087;-55
2022/08/03 10:51:05;;;;;;;3.28;0.90;;;25.40;99.90;;;;;;4931027;29;20106;-59
2022/08/03 10:53:36;;;;;;;9.25;1.75;;;25.50;99.90;;;;;;4932580;29;20086;-56
2022/08/03 10:59:10;;;;;;;4.55;1.00;;;25.20;99.90;;;;;;4932580;29;20071;-56
2022/08/03 11:01:53;;;;;;;4.55;0.90;;;25.30;99.90;;;;;;4930941;29;20483;-56
2022/08/03 11:04:28;;;;;;;3.65;0.98;;;25.40;99.90;;;;;;4932340;29;20052;-56
2022/08/03 11:07:17;;;;;;;5.80;1.20;;;25.60;99.90;;;;;;4590358;28;10000439;-55
2022/08/03 11:09:54;;;;;;;4.88;1.38;;;25.80;99.10;;;;;;4931265;29;20155;-56
2022/08/03 11:12:26;;;;;;;4.38;1.30;;;25.90;99.60;;;;;;4930117;29;20143;-54
2022/08/03 11:14:59;;;;;;;8.13;1.42;;;25.90;99.50;;;;;;4932174;29;20102;-56
2022/08/03 11:17:25;;;;;;;7.22;1.90;;;25.70;99.70;;;;;;4932150;29;20138;-54
2022/08/03 11:19:52;;;;;;;4.55;1.05;;;25.90;99.90;;;;;;4930433;29;20091;-56
2022/08/03 11:22:24;;;;;;;3.53;1.10;;;25.90;99.70;;;;;;4931888;29;20071;-54
2022/08/03 11:24:53;;;;;;;4.07;1.42;;;25.80;99.20;;;;;;4931413;29;20091;-57
2022/08/03 11:27:23;;;;;;;8.38;1.20;;;25.90;99.60;;;;;;4930414;29;20043;-56
2022/08/03 11:29:57;;;;;;;8.43;1.85;;;25.90;99.70;;;;;;4931385;29;20110;-54
2022/08/03 11:32:39;;;;;;;6.22;1.25;;;25.90;99.40;;;;;;4929411;29;20090;-54
2022/08/03 11:35:25;;;;;;;6.03;1.35;;;25.70;98.30;;;;;;4931642;29;20044;-55
2022/08/03 11:37:58;;;;;;;7.18;1.23;;;25.60;98.90;;;;;;4931318;29;20079;-54
2022/08/03 11:40:47;;;;;;;5.20;1.20;;;25.50;99.00;;;;;;4931628;29;20451;-56
2022/08/03 11:43:26;;;;;;;3.97;1.38;;;25.70;99.40;;;;;;4931785;29;20110;-53
2022/08/03 11:46:01;;;;;;;4.57;1.50;;;25.90;98.50;;;;;;4931443;29;20139;-55
2022/08/03 11:48:42;;;;;;;4.05;0.90;;;25.90;99.30;;;;;;4927185;29;20467;-55
2022/08/03 11:51:39;;;;;;;4.60;1.45;;;25.90;98.00;;;;;;4931333;29;20146;-57
2022/08/03 11:54:06;;;;;;;7.97;1.30;;;26.20;98.00;;;;;;4938764;28;20119;-53
2022/08/03 11:56:47;;;;;;;11.52;1.77;;;26.20;98.20;;;;;;4931342;29;20103;-54
2022/08/03 11:59:14;;;;;;;13.73;1.55;;;26.30;97.30;;;;;;4920992;29;20043;-56
2022/08/03 12:01:47;;;;;;;3.60;1.10;;;26.30;97.60;;;;;;4930985;29;20039;-57
2022/08/03 12:04:15;;;;;;;8.40;1.83;;;26.20;98.40;;;;;;4931182;29;20075;-56
2022/08/03 12:06:59;;;;;;;9.13;1.17;;;26.30;98.10;;;;;;4930850;29;20060;-53
2022/08/03 12:09:26;;;;;;;8.40;1.52;;;26.40;96.40;;;;;;4930108;29;20054;-54
2022/08/03 12:11:52;;;;;;;8.30;1.42;;;26.50;97.30;;;;;;4930345;29;20071;-54
2022/08/03 12:14:27;;;;;;;9.18;1.77;;;26.50;97.60;;;;;;4931160;29;20052;-51
2022/08/03 12:17:14;;;;;;;4.32;1.60;;;26.60;96.30;;;;;;4931003;29;20047;-57
2022/08/03 12:19:43;;;;;;;6.45;1.38;;;26.40;96.40;;;;;;4929510;29;20052;-55
2022/08/03 12:22:09;;;;;;;6.35;1.77;;;26.50;96.80;;;;;;4930626;29;20079;-55
2022/08/03 12:24:41;;;;;;;5.07;0.80;;;26.70;96.40;;;;;;4930885;28;20052;-55
2022/08/03 12:27:08;;;;;;;5.22;1.27;;;26.60;95.50;;;;;;4929367;29;20255;-55
2022/08/03 12:29:35;;;;;;;5.35;1.27;;;26.50;96.00;;;;;;4930723;29;20086;-55
2022/08/03 12:32:01;;;;;;;4.60;1.70;;;26.50;96.10;;;;;;4928935;29;20047;-55
2022/08/03 12:34:47;;;;;;;5.03;1.40;;;26.40;96.70;;;;;;4930537;29;20098;-55
2022/08/03 12:37:21;;;;;;;14.98;1.38;;;26.40;95.70;;;;;;4929380;29;20126;-56
2022/08/03 12:39:53;;;;;;;5.28;1.00;;;26.50;94.90;;;;;;4930475;29;20058;-56
2022/08/03 12:42:35;;;;;;;5.47;1.00;;;26.50;95.20;;;;;;4930299;29;20553;-55
2022/08/03 12:45:18;;;;;;;10.60;1.35;;;26.70;95.90;;;;;;4930064;29;20052;-53
2022/08/03 12:48:07;;;;;;;2.90;1.08;;;26.90;93.40;;;;;;4929963;29;20135;-57
2022/08/03 12:50:35;;;;;;;8.80;2.25;;;27.10;93.20;;;;;;4930457;29;20657;-54
2022/08/03 12:53:04;;;;;;;4.65;1.00;;;27.10;93.30;;;;;;4930134;29;20071;-58
2022/08/03 12:55:33;;;;;;;13.82;1.60;;;27.00;94.30;;;;;;4929937;29;20050;-56
2022/08/03 12:58:34;;;;;;;11.25;1.23;;;27.10;94.00;;;;;;4929954;29;20072;-53
2022/08/03 13:01:05;;;;;;;13.93;1.42;;;27.20;92.50;;;;;;4927066;29;20494;-53
2022/08/03 13:03:47;;;;;;;5.97;1.50;;;27.20;93.10;;;;;;4930275;29;20051;-55
2022/08/03 13:06:23;;;;;;;4.13;0.98;;;27.40;92.30;;;;;;4930326;29;20063;-55
2022/08/03 13:09:01;;;;;;;11.02;1.83;;;27.60;92.60;;;;;;4929697;29;20047;-53
2022/08/03 13:11:28;;;;;;;7.78;1.70;;;27.80;91.70;;;;;;4930543;29;20147;-54